sensor_id;sensor_type;location;lat;lon;timestamp;temperature;humidity
52459;DHT22;38372;52.902;6.024;2023-03-05T00:01:30;3.70;99.90
52459;DHT22;38372;52.902;6.024;2023-03-05T00:03:58;3.70;99.90
52459;DHT22;38372;52.902;6.024;2023-03-05T00:06:26;3.60;99.90
52459;DHT22;38372;52.902;6.024;2023-03-05T00:08:53;3.60;99.90
52459;DHT22;38372;52.902;6.024;2023-03-05T00:11:20;3.60;99.90
52459;DHT22;38372;52.902;6.024;2023-03-05T00:13:47;3.60;99.90
52459;DHT22;38372;52.902;6.024;2023-03-05T00:16:14;3.60;99.90
52459;DHT22;38372;52.902;6.024;2023-03-05T00:18:40;3.60;99.90
52459;DHT22;38372;52.902;6.024;2023-03-05T00:21:25;3.50;99.90
52459;DHT22;38372;52.902;6.024;2023-03-05T00:23:52;3.50;99.90
52459;DHT22;38372;52.902;6.024;2023-03-05T00:26:19;3.50;99.90
52459;DHT22;38372;52.902;6.024;2023-03-05T00:28:45;3.50;99.90
52459;DHT22;38372;52.902;6.024;2023-03-05T00:31:15;3.50;99.90
52459;DHT22;38372;52.902;6.024;2023-03-05T00:33:42;3.50;99.90
52459;DHT22;38372;52.902;6.024;2023-03-05T00:36:08;3.50;99.90
52459;DHT22;38372;52.902;6.024;2023-03-05T00:38:34;3.40;99.90
52459;DHT22;38372;52.902;6.024;2023-03-05T00:41:01;3.40;99.90
52459;DHT22;38372;52.902;6.024;2023-03-05T00:43:27;3.40;99.90
52459;DHT22;38372;52.902;6.024;2023-03-05T00:45:53;3.40;99.90
52459;DHT22;38372;52.902;6.024;2023-03-05T00:48:19;3.40;99.90
52459;DHT22;38372;52.902;6.024;2023-03-05T00:50:47;3.40;99.90
52459;DHT22;38372;52.902;6.024;2023-03-05T00:53:13;3.40;99.90
52459;DHT22;38372;52.902;6.024;2023-03-05T00:55:38;3.40;99.90
52459;DHT22;38372;52.902;6.024;2023-03-05T00:58:04;3.40;99.90
52459;DHT22;38372;52.902;6.024;2023-03-05T01:00:30;3.40;99.90
52459;DHT22;38372;52.902;6.024;2023-03-05T01:02:56;3.40;99.90
52459;DHT22;38372;52.902;6.024;2023-03-05T01:05:21;3.40;99.90
52459;DHT22;38372;52.902;6.024;2023-03-05T01:07:47;3.40;99.90
52459;DHT22;38372;52.902;6.024;2023-03-05T01:10:16;3.40;99.90
52459;DHT22;38372;52.902;6.024;2023-03-05T01:12:42;3.40;99.90
52459;DHT22;38372;52.902;6.024;2023-03-05T01:15:07;3.40;99.90
52459;DHT22;38372;52.902;6.024;2023-03-05T01:17:33;3.40;99.90
52459;DHT22;38372;52.902;6.024;2023-03-05T01:19:59;3.40;99.90
52459;DHT22;38372;52.902;6.024;2023-03-05T01:22:25;3.40;99.90
52459;DHT22;38372;52.902;6.024;2023-03-05T01:24:51;3.40;99.90
52459;DHT22;38372;52.902;6.024;2023-03-05T01:27:16;3.40;99.90
52459;DHT22;38372;52.902;6.024;2023-03-05T01:29:42;3.40;99.90
52459;DHT22;38372;52.902;6.024;2023-03-05T01:32:08;3.40;99.90
52459;DHT22;38372;52.902;6.024;2023-03-05T01:34:35;3.30;99.90
52459;DHT22;38372;52.902;6.024;2023-03-05T01:37:02;3.30;99.90
52459;DHT22;38372;52.902;6.024;2023-03-05T01:39:28;3.30;99.90
52459;DHT22;38372;52.902;6.024;2023-03-05T01:41:54;3.30;99.90
52459;DHT22;38372;52.902;6.024;2023-03-05T01:44:22;3.20;99.90
52459;DHT22;38372;52.902;6.024;2023-03-05T01:46:48;3.20;99.90
52459;DHT22;38372;52.902;6.024;2023-03-05T01:57:11;3.20;99.90
52459;DHT22;38372;52.902;6.024;2023-03-05T01:59:39;3.20;99.90
52459;DHT22;38372;52.902;6.024;2023-03-05T02:02:06;3.20;99.90
52459;DHT22;38372;52.902;6.024;2023-03-05T02:04:54;3.20;99.90
52459;DHT22;38372;52.902;6.024;2023-03-05T02:07:23;3.20;99.90
52459;DHT22;38372;52.902;6.024;2023-03-05T02:09:49;3.20;99.90
52459;DHT22;38372;52.902;6.024;2023-03-05T02:12:15;3.20;99.90
52459;DHT22;38372;52.902;6.024;2023-03-05T02:14:44;3.20;99.90
52459;DHT22;38372;52.902;6.024;2023-03-05T02:17:11;3.20;99.90
52459;DHT22;38372;52.902;6.024;2023-03-05T02:19:54;3.20;99.90
52459;DHT22;38372;52.902;6.024;2023-03-05T02:22:22;3.20;99.90
52459;DHT22;38372;52.902;6.024;2023-03-05T02:24:49;3.20;99.90
52459;DHT22;38372;52.902;6.024;2023-03-05T02:27:16;3.20;99.90
52459;DHT22;38372;52.902;6.024;2023-03-05T02:29:44;3.20;99.90
52459;DHT22;38372;52.902;6.024;2023-03-05T02:32:12;3.20;99.90
52459;DHT22;38372;52.902;6.024;2023-03-05T02:34:37;3.20;99.90
52459;DHT22;38372;52.902;6.024;2023-03-05T02:37:04;3.20;99.90
52459;DHT22;38372;52.902;6.024;2023-03-05T02:39:33;3.20;99.90
52459;DHT22;38372;52.902;6.024;2023-03-05T02:41:59;3.30;99.90
52459;DHT22;38372;52.902;6.024;2023-03-05T02:44:25;3.30;99.90
52459;DHT22;38372;52.902;6.024;2023-03-05T02:46:51;3.40;99.90
52459;DHT22;38372;52.902;6.024;2023-03-05T02:49:17;3.40;99.90
52459;DHT22;38372;52.902;6.024;2023-03-05T02:51:43;3.40;99.90
52459;DHT22;38372;52.902;6.024;2023-03-05T02:54:09;3.50;99.90
52459;DHT22;38372;52.902;6.024;2023-03-05T02:56:35;3.50;99.90
52459;DHT22;38372;52.902;6.024;2023-03-05T02:59:02;3.50;99.90
52459;DHT22;38372;52.902;6.024;2023-03-05T03:01:28;3.40;99.90
52459;DHT22;38372;52.902;6.024;2023-03-05T03:03:54;3.40;99.90
52459;DHT22;38372;52.902;6.024;2023-03-05T03:06:20;3.40;99.90
52459;DHT22;38372;52.902;6.024;2023-03-05T03:08:46;3.40;99.90
52459;DHT22;38372;52.902;6.024;2023-03-05T03:11:12;3.40;99.90
52459;DHT22;38372;52.902;6.024;2023-03-05T03:13:38;3.40;99.90
52459;DHT22;38372;52.902;6.024;2023-03-05T03:16:07;3.40;99.90
52459;DHT22;38372;52.902;6.024;2023-03-05T03:18:33;3.40;99.90
52459;DHT22;38372;52.902;6.024;2023-03-05T03:20:59;3.40;99.90
52459;DHT22;38372;52.902;6.024;2023-03-05T03:23:26;3.30;99.90
52459;DHT22;38372;52.902;6.024;2023-03-05T03:25:51;3.30;99.90
52459;DHT22;38372;52.902;6.024;2023-03-05T03:28:17;3.30;99.90
52459;DHT22;38372;52.902;6.024;2023-03-05T03:30:43;3.20;99.90
52459;DHT22;38372;52.902;6.024;2023-03-05T03:33:09;3.20;99.90
52459;DHT22;38372;52.902;6.024;2023-03-05T03:35:35;3.20;99.90
52459;DHT22;38372;52.902;6.024;2023-03-05T03:38:00;3.20;99.90
52459;DHT22;38372;52.902;6.024;2023-03-05T03:40:26;3.20;99.90
52459;DHT22;38372;52.902;6.024;2023-03-05T03:42:52;3.20;99.90
52459;DHT22;38372;52.902;6.024;2023-03-05T03:45:19;3.20;99.90
52459;DHT22;38372;52.902;6.024;2023-03-05T03:47:50;3.20;99.90
52459;DHT22;38372;52.902;6.024;2023-03-05T03:50:19;3.20;99.90
52459;DHT22;38372;52.902;6.024;2023-03-05T03:52:46;3.20;99.90
52459;DHT22;38372;52.902;6.024;2023-03-05T03:55:12;3.20;99.90
52459;DHT22;38372;52.902;6.024;2023-03-05T03:57:38;3.30;99.90
52459;DHT22;38372;52.902;6.024;2023-03-05T04:00:05;3.30;99.90
52459;DHT22;38372;52.902;6.024;2023-03-05T04:02:31;3.20;99.90
52459;DHT22;38372;52.902;6.024;2023-03-05T04:04:57;3.20;99.90
52459;DHT22;38372;52.902;6.024;2023-03-05T04:07:23;3.20;99.90
52459;DHT22;38372;52.902;6.024;2023-03-05T04:09:49;3.20;99.90
52459;DHT22;38372;52.902;6.024;2023-03-05T04:12:15;3.20;99.90
52459;DHT22;38372;52.902;6.024;2023-03-05T04:14:47;3.20;99.90
52459;DHT22;38372;52.902;6.024;2023-03-05T04:17:14;3.20;99.90
52459;DHT22;38372;52.902;6.024;2023-03-05T04:19:41;3.20;99.90
52459;DHT22;38372;52.902;6.024;2023-03-05T04:22:11;3.20;99.90
52459;DHT22;38372;52.902;6.024;2023-03-05T04:24:37;3.20;99.90
52459;DHT22;38372;52.902;6.024;2023-03-05T04:27:04;3.10;99.90
52459;DHT22;38372;52.902;6.024;2023-03-05T04:29:31;3.10;99.90
52459;DHT22;38372;52.902;6.024;2023-03-05T04:31:56;3.10;99.90
52459;DHT22;38372;52.902;6.024;2023-03-05T04:34:22;3.00;99.90
52459;DHT22;38372;52.902;6.024;2023-03-05T04:36:48;3.00;99.90
52459;DHT22;38372;52.902;6.024;2023-03-05T04:39:14;3.00;99.90
52459;DHT22;38372;52.902;6.024;2023-03-05T04:41:40;2.90;99.90
52459;DHT22;38372;52.902;6.024;2023-03-05T04:44:05;2.80;99.90
52459;DHT22;38372;52.902;6.024;2023-03-05T04:46:31;2.80;99.90
52459;DHT22;38372;52.902;6.024;2023-03-05T04:48:57;2.80;99.90
52459;DHT22;38372;52.902;6.024;2023-03-05T04:51:23;2.90;99.90
52459;DHT22;38372;52.902;6.024;2023-03-05T04:53:49;2.80;99.90
52459;DHT22;38372;52.902;6.024;2023-03-05T04:56:15;2.80;99.90
52459;DHT22;38372;52.902;6.024;2023-03-05T04:58:41;2.80;99.90
52459;DHT22;38372;52.902;6.024;2023-03-05T05:01:07;2.80;99.90
52459;DHT22;38372;52.902;6.024;2023-03-05T05:03:32;2.90;99.90
52459;DHT22;38372;52.902;6.024;2023-03-05T05:05:59;2.90;99.90
52459;DHT22;38372;52.902;6.024;2023-03-05T05:08:26;2.90;99.90
52459;DHT22;38372;52.902;6.024;2023-03-05T05:11:03;2.90;99.90
52459;DHT22;38372;52.902;6.024;2023-03-05T05:13:30;2.80;99.90
52459;DHT22;38372;52.902;6.024;2023-03-05T05:15:56;2.80;99.90
52459;DHT22;38372;52.902;6.024;2023-03-05T05:18:22;2.80;99.90
52459;DHT22;38372;52.902;6.024;2023-03-05T05:20:48;2.80;99.90
52459;DHT22;38372;52.902;6.024;2023-03-05T05:23:15;2.70;99.90
52459;DHT22;38372;52.902;6.024;2023-03-05T05:25:41;2.70;99.90
52459;DHT22;38372;52.902;6.024;2023-03-05T05:28:08;2.60;99.90
52459;DHT22;38372;52.902;6.024;2023-03-05T05:30:34;2.60;99.90
52459;DHT22;38372;52.902;6.024;2023-03-05T05:33:00;2.60;99.90
52459;DHT22;38372;52.902;6.024;2023-03-05T05:35:26;2.50;99.90
52459;DHT22;38372;52.902;6.024;2023-03-05T05:37:52;2.50;99.90
52459;DHT22;38372;52.902;6.024;2023-03-05T05:40:17;2.50;99.90
52459;DHT22;38372;52.902;6.024;2023-03-05T05:42:43;2.50;99.90
52459;DHT22;38372;52.902;6.024;2023-03-05T05:45:10;2.50;99.90
52459;DHT22;38372;52.902;6.024;2023-03-05T05:47:36;2.50;99.90
52459;DHT22;38372;52.902;6.024;2023-03-05T05:50:03;2.50;99.90
52459;DHT22;38372;52.902;6.024;2023-03-05T05:52:29;2.60;99.90
52459;DHT22;38372;52.902;6.024;2023-03-05T05:54:55;2.60;99.90
52459;DHT22;38372;52.902;6.024;2023-03-05T05:57:20;2.60;99.90
52459;DHT22;38372;52.902;6.024;2023-03-05T05:59:46;2.70;99.90
52459;DHT22;38372;52.902;6.024;2023-03-05T06:02:12;2.70;99.90
52459;DHT22;38372;52.902;6.024;2023-03-05T06:04:38;2.70;99.90
52459;DHT22;38372;52.902;6.024;2023-03-05T06:07:05;2.80;99.90
52459;DHT22;38372;52.902;6.024;2023-03-05T06:09:31;2.80;99.90
52459;DHT22;38372;52.902;6.024;2023-03-05T06:11:57;2.80;99.90
52459;DHT22;38372;52.902;6.024;2023-03-05T06:14:22;2.80;99.90
52459;DHT22;38372;52.902;6.024;2023-03-05T06:16:48;2.90;99.90
52459;DHT22;38372;52.902;6.024;2023-03-05T06:19:14;2.90;99.90
52459;DHT22;38372;52.902;6.024;2023-03-05T06:21:41;2.90;99.90
52459;DHT22;38372;52.902;6.024;2023-03-05T06:24:08;2.90;99.90
52459;DHT22;38372;52.902;6.024;2023-03-05T06:26:34;2.90;99.90
52459;DHT22;38372;52.902;6.024;2023-03-05T06:29:00;2.90;99.90
52459;DHT22;38372;52.902;6.024;2023-03-05T06:31:28;2.80;99.90
52459;DHT22;38372;52.902;6.024;2023-03-05T06:33:57;2.80;99.90
52459;DHT22;38372;52.902;6.024;2023-03-05T06:36:26;2.80;99.90
52459;DHT22;38372;52.902;6.024;2023-03-05T06:38:52;2.80;99.90
52459;DHT22;38372;52.902;6.024;2023-03-05T06:41:21;2.70;99.90
52459;DHT22;38372;52.902;6.024;2023-03-05T06:43:47;2.70;99.90
52459;DHT22;38372;52.902;6.024;2023-03-05T06:46:25;2.60;99.90
52459;DHT22;38372;52.902;6.024;2023-03-05T06:48:54;2.70;99.90
52459;DHT22;38372;52.902;6.024;2023-03-05T06:51:34;2.70;99.90
52459;DHT22;38372;52.902;6.024;2023-03-05T06:54:06;2.60;99.90
52459;DHT22;38372;52.902;6.024;2023-03-05T06:56:34;2.70;99.90
52459;DHT22;38372;52.902;6.024;2023-03-05T06:59:01;2.60;99.90
52459;DHT22;38372;52.902;6.024;2023-03-05T07:01:26;2.70;99.90
52459;DHT22;38372;52.902;6.024;2023-03-05T07:03:54;2.60;99.90
52459;DHT22;38372;52.902;6.024;2023-03-05T07:06:21;2.70;99.90
52459;DHT22;38372;52.902;6.024;2023-03-05T07:08:47;2.70;99.90
52459;DHT22;38372;52.902;6.024;2023-03-05T07:11:15;2.80;99.90
52459;DHT22;38372;52.902;6.024;2023-03-05T07:13:41;2.80;99.90
52459;DHT22;38372;52.902;6.024;2023-03-05T07:16:10;2.90;99.90
52459;DHT22;38372;52.902;6.024;2023-03-05T07:18:37;2.90;99.90
52459;DHT22;38372;52.902;6.024;2023-03-05T07:21:05;2.90;99.90
52459;DHT22;38372;52.902;6.024;2023-03-05T07:23:31;3.00;99.90
52459;DHT22;38372;52.902;6.024;2023-03-05T07:26:00;3.00;99.90
52459;DHT22;38372;52.902;6.024;2023-03-05T07:28:26;3.00;99.90
52459;DHT22;38372;52.902;6.024;2023-03-05T07:31:01;3.10;99.90
52459;DHT22;38372;52.902;6.024;2023-03-05T07:33:27;3.20;99.90
52459;DHT22;38372;52.902;6.024;2023-03-05T07:35:54;3.20;99.90
52459;DHT22;38372;52.902;6.024;2023-03-05T07:38:20;3.30;99.90
52459;DHT22;38372;52.902;6.024;2023-03-05T07:40:45;3.30;99.90
52459;DHT22;38372;52.902;6.024;2023-03-05T07:43:12;3.40;99.90
52459;DHT22;38372;52.902;6.024;2023-03-05T07:45:42;3.40;99.90
52459;DHT22;38372;52.902;6.024;2023-03-05T07:48:08;3.50;99.90
52459;DHT22;38372;52.902;6.024;2023-03-05T07:50:36;3.50;99.90
52459;DHT22;38372;52.902;6.024;2023-03-05T07:53:02;3.60;99.90
52459;DHT22;38372;52.902;6.024;2023-03-05T07:55:28;3.70;99.90
52459;DHT22;38372;52.902;6.024;2023-03-05T07:57:54;3.80;99.90
52459;DHT22;38372;52.902;6.024;2023-03-05T08:00:20;3.90;99.90
52459;DHT22;38372;52.902;6.024;2023-03-05T08:02:46;4.00;99.90
52459;DHT22;38372;52.902;6.024;2023-03-05T08:05:13;4.10;99.90
52459;DHT22;38372;52.902;6.024;2023-03-05T08:07:39;4.20;99.90
52459;DHT22;38372;52.902;6.024;2023-03-05T08:10:05;4.40;99.90
52459;DHT22;38372;52.902;6.024;2023-03-05T08:12:31;4.50;99.90
52459;DHT22;38372;52.902;6.024;2023-03-05T08:14:57;4.60;99.90
52459;DHT22;38372;52.902;6.024;2023-03-05T08:17:23;4.70;99.90
52459;DHT22;38372;52.902;6.024;2023-03-05T08:19:48;4.80;99.90
52459;DHT22;38372;52.902;6.024;2023-03-05T08:22:14;5.00;99.90
52459;DHT22;38372;52.902;6.024;2023-03-05T08:24:42;5.20;99.90
52459;DHT22;38372;52.902;6.024;2023-03-05T08:27:08;5.50;99.90
52459;DHT22;38372;52.902;6.024;2023-03-05T08:29:34;5.90;99.90
52459;DHT22;38372;52.902;6.024;2023-03-05T08:31:59;6.30;99.90
52459;DHT22;38372;52.902;6.024;2023-03-05T08:34:25;6.70;99.90
52459;DHT22;38372;52.902;6.024;2023-03-05T08:36:51;7.00;99.90
52459;DHT22;38372;52.902;6.024;2023-03-05T08:39:17;7.20;99.90
52459;DHT22;38372;52.902;6.024;2023-03-05T08:41:43;7.20;99.90
52459;DHT22;38372;52.902;6.024;2023-03-05T08:44:09;7.10;99.90
52459;DHT22;38372;52.902;6.024;2023-03-05T08:46:35;7.00;99.90
52459;DHT22;38372;52.902;6.024;2023-03-05T08:49:03;6.80;99.90
52459;DHT22;38372;52.902;6.024;2023-03-05T08:51:28;6.70;99.90
52459;DHT22;38372;52.902;6.024;2023-03-05T08:53:56;6.60;99.90
52459;DHT22;38372;52.902;6.024;2023-03-05T08:56:23;6.80;99.90
52459;DHT22;38372;52.902;6.024;2023-03-05T08:58:50;6.90;99.90
52459;DHT22;38372;52.902;6.024;2023-03-05T09:01:17;7.10;99.90
52459;DHT22;38372;52.902;6.024;2023-03-05T09:03:43;7.30;99.90
52459;DHT22;38372;52.902;6.024;2023-03-05T09:06:10;7.40;99.90
52459;DHT22;38372;52.902;6.024;2023-03-05T09:08:37;7.40;99.90
52459;DHT22;38372;52.902;6.024;2023-03-05T09:11:05;7.60;99.90
52459;DHT22;38372;52.902;6.024;2023-03-05T09:13:32;7.50;99.90
52459;DHT22;38372;52.902;6.024;2023-03-05T09:16:00;7.60;99.90
52459;DHT22;38372;52.902;6.024;2023-03-05T09:18:27;7.60;99.90
52459;DHT22;38372;52.902;6.024;2023-03-05T09:20:53;7.70;99.90
52459;DHT22;38372;52.902;6.024;2023-03-05T09:23:19;7.70;99.90
52459;DHT22;38372;52.902;6.024;2023-03-05T09:25:45;7.70;99.90
52459;DHT22;38372;52.902;6.024;2023-03-05T09:28:11;7.70;99.90
52459;DHT22;38372;52.902;6.024;2023-03-05T09:30:37;7.70;99.90
52459;DHT22;38372;52.902;6.024;2023-03-05T09:33:03;8.00;99.90
52459;DHT22;38372;52.902;6.024;2023-03-05T09:35:33;8.30;99.90
52459;DHT22;38372;52.902;6.024;2023-03-05T09:37:58;8.60;99.90
52459;DHT22;38372;52.902;6.024;2023-03-05T09:40:26;9.00;99.90
52459;DHT22;38372;52.902;6.024;2023-03-05T09:45:54;9.70;99.90
52459;DHT22;38372;52.902;6.024;2023-03-05T09:48:39;10.00;99.90
52459;DHT22;38372;52.902;6.024;2023-03-05T09:51:11;9.80;99.90
52459;DHT22;38372;52.902;6.024;2023-03-05T09:56:12;9.50;99.90
52459;DHT22;38372;52.902;6.024;2023-03-05T09:58:47;9.50;99.90
52459;DHT22;38372;52.902;6.024;2023-03-05T10:01:18;9.50;99.90
52459;DHT22;38372;52.902;6.024;2023-03-05T10:03:49;9.70;99.90
52459;DHT22;38372;52.902;6.024;2023-03-05T10:06:22;9.90;99.90
52459;DHT22;38372;52.902;6.024;2023-03-05T10:14:38;9.80;99.90
52459;DHT22;38372;52.902;6.024;2023-03-05T10:17:31;9.70;99.90
52459;DHT22;38372;52.902;6.024;2023-03-05T10:26:04;8.50;99.90
52459;DHT22;38372;52.902;6.024;2023-03-05T10:44:56;9.30;99.90
52459;DHT22;38372;52.902;6.024;2023-03-05T10:47:47;10.00;99.90
52459;DHT22;38372;52.902;6.024;2023-03-05T10:50:23;10.50;99.90
52459;DHT22;38372;52.902;6.024;2023-03-05T10:55:27;10.90;99.90
52459;DHT22;38372;52.902;6.024;2023-03-05T10:57:53;10.80;99.90
52459;DHT22;38372;52.902;6.024;2023-03-05T11:00:20;11.00;99.90
52459;DHT22;38372;52.902;6.024;2023-03-05T11:03:04;10.70;99.90
52459;DHT22;38372;52.902;6.024;2023-03-05T11:14:34;8.60;99.90
52459;DHT22;38372;52.902;6.024;2023-03-05T11:17:03;9.00;99.90
52459;DHT22;38372;52.902;6.024;2023-03-05T11:19:46;9.50;99.90
52459;DHT22;38372;52.902;6.024;2023-03-05T11:22:18;9.90;99.90
52459;DHT22;38372;52.902;6.024;2023-03-05T11:27:43;10.40;99.90
52459;DHT22;38372;52.902;6.024;2023-03-05T11:30:36;10.50;99.90
52459;DHT22;38372;52.902;6.024;2023-03-05T11:33:13;10.40;99.90
52459;DHT22;38372;52.902;6.024;2023-03-05T11:35:42;10.40;99.90
52459;DHT22;38372;52.902;6.024;2023-03-05T11:38:23;10.40;99.90
52459;DHT22;38372;52.902;6.024;2023-03-05T11:40:51;10.60;99.90
52459;DHT22;38372;52.902;6.024;2023-03-05T11:43:20;10.50;99.90
52459;DHT22;38372;52.902;6.024;2023-03-05T11:45:49;10.50;99.90
52459;DHT22;38372;52.902;6.024;2023-03-05T11:48:19;10.40;99.90
52459;DHT22;38372;52.902;6.024;2023-03-05T11:50:46;10.30;99.90
52459;DHT22;38372;52.902;6.024;2023-03-05T11:53:25;10.10;99.90
52459;DHT22;38372;52.902;6.024;2023-03-05T11:56:11;9.80;99.90
52459;DHT22;38372;52.902;6.024;2023-03-05T11:58:50;9.80;99.90
52459;DHT22;38372;52.902;6.024;2023-03-05T12:01:23;10.00;99.90
52459;DHT22;38372;52.902;6.024;2023-03-05T12:03:51;9.80;99.90
52459;DHT22;38372;52.902;6.024;2023-03-05T12:18:02;8.40;99.90
52459;DHT22;38372;52.902;6.024;2023-03-05T12:23:16;8.20;99.90
52459;DHT22;38372;52.902;6.024;2023-03-05T12:28:51;8.10;99.90
52459;DHT22;38372;52.902;6.024;2023-03-05T12:31:04;8.30;99.90
52459;DHT22;38372;52.902;6.024;2023-03-05T12:33:34;9.20;99.90
52459;DHT22;38372;52.902;6.024;2023-03-05T12:47:16;8.90;99.90
52459;DHT22;38372;52.902;6.024;2023-03-05T12:51:55;9.60;99.90
52459;DHT22;38372;52.902;6.024;2023-03-05T12:54:28;9.50;99.90
52459;DHT22;38372;52.902;6.024;2023-03-05T12:57:03;9.20;99.90
52459;DHT22;38372;52.902;6.024;2023-03-05T13:02:27;8.60;99.90
52459;DHT22;38372;52.902;6.024;2023-03-05T13:04:58;8.50;99.90
52459;DHT22;38372;52.902;6.024;2023-03-05T13:07:24;8.30;99.90
52459;DHT22;38372;52.902;6.024;2023-03-05T13:09:55;8.30;99.90
52459;DHT22;38372;52.902;6.024;2023-03-05T13:12:23;8.40;99.90
52459;DHT22;38372;52.902;6.024;2023-03-05T13:15:05;8.40;99.90
52459;DHT22;38372;52.902;6.024;2023-03-05T13:17:38;8.40;99.90
52459;DHT22;38372;52.902;6.024;2023-03-05T13:23:16;8.40;99.90
52459;DHT22;38372;52.902;6.024;2023-03-05T13:26:00;8.70;99.90
52459;DHT22;38372;52.902;6.024;2023-03-05T13:28:26;9.30;99.90
52459;DHT22;38372;52.902;6.024;2023-03-05T13:30:58;9.90;99.90
52459;DHT22;38372;52.902;6.024;2023-03-05T13:33:35;9.90;99.90
52459;DHT22;38372;52.902;6.024;2023-03-05T13:36:02;10.00;99.90
52459;DHT22;38372;52.902;6.024;2023-03-05T13:41:06;9.90;99.90
52459;DHT22;38372;52.902;6.024;2023-03-05T13:43:32;9.90;99.90
52459;DHT22;38372;52.902;6.024;2023-03-05T13:45:58;9.80;99.90
52459;DHT22;38372;52.902;6.024;2023-03-05T13:48:26;9.70;99.90
52459;DHT22;38372;52.902;6.024;2023-03-05T13:50:55;9.60;99.90
52459;DHT22;38372;52.902;6.024;2023-03-05T13:53:29;9.50;99.90
52459;DHT22;38372;52.902;6.024;2023-03-05T13:56:01;9.30;99.90
52459;DHT22;38372;52.902;6.024;2023-03-05T13:58:52;9.00;99.90
52459;DHT22;38372;52.902;6.024;2023-03-05T14:01:34;8.80;99.90
52459;DHT22;38372;52.902;6.024;2023-03-05T14:11:54;7.90;99.90
52459;DHT22;38372;52.902;6.024;2023-03-05T14:14:22;7.70;99.90
52459;DHT22;38372;52.902;6.024;2023-03-05T14:16:47;7.70;99.90
52459;DHT22;38372;52.902;6.024;2023-03-05T14:19:36;7.60;99.90
52459;DHT22;38372;52.902;6.024;2023-03-05T14:22:03;7.60;99.90
52459;DHT22;38372;52.902;6.024;2023-03-05T14:24:30;7.50;99.90
52459;DHT22;38372;52.902;6.024;2023-03-05T14:27:07;7.40;99.90
52459;DHT22;38372;52.902;6.024;2023-03-05T14:29:44;7.40;99.90
52459;DHT22;38372;52.902;6.024;2023-03-05T14:34:57;7.30;99.90
52459;DHT22;38372;52.902;6.024;2023-03-05T14:37:32;7.30;99.90
52459;DHT22;38372;52.902;6.024;2023-03-05T14:42:49;7.20;99.90
52459;DHT22;38372;52.902;6.024;2023-03-05T14:45:29;7.20;99.90
52459;DHT22;38372;52.902;6.024;2023-03-05T14:47:57;7.30;99.90
52459;DHT22;38372;52.902;6.024;2023-03-05T14:50:31;7.30;99.90
52459;DHT22;38372;52.902;6.024;2023-03-05T14:53:00;7.30;99.90
52459;DHT22;38372;52.902;6.024;2023-03-05T14:55:29;7.30;99.90
52459;DHT22;38372;52.902;6.024;2023-03-05T14:58:02;7.30;99.90
52459;DHT22;38372;52.902;6.024;2023-03-05T15:00:29;7.30;99.90
52459;DHT22;38372;52.902;6.024;2023-03-05T15:02:55;7.30;99.90
52459;DHT22;38372;52.902;6.024;2023-03-05T15:05:22;7.20;99.90
52459;DHT22;38372;52.902;6.024;2023-03-05T15:07:49;7.10;99.90
52459;DHT22;38372;52.902;6.024;2023-03-05T15:10:18;7.10;99.90
52459;DHT22;38372;52.902;6.024;2023-03-05T15:12:44;7.00;99.90
52459;DHT22;38372;52.902;6.024;2023-03-05T15:15:15;7.00;99.90
52459;DHT22;38372;52.902;6.024;2023-03-05T15:17:41;7.00;99.90
52459;DHT22;38372;52.902;6.024;2023-03-05T15:20:29;7.00;99.90
52459;DHT22;38372;52.902;6.024;2023-03-05T15:22:56;6.90;99.90
52459;DHT22;38372;52.902;6.024;2023-03-05T15:25:23;6.90;99.90
52459;DHT22;38372;52.902;6.024;2023-03-05T15:27:51;6.90;99.90
52459;DHT22;38372;52.902;6.024;2023-03-05T15:30:32;6.90;99.90
52459;DHT22;38372;52.902;6.024;2023-03-05T15:33:07;6.80;99.90
52459;DHT22;38372;52.902;6.024;2023-03-05T15:35:33;6.70;99.90
52459;DHT22;38372;52.902;6.024;2023-03-05T15:37:59;6.70;99.90
52459;DHT22;38372;52.902;6.024;2023-03-05T15:40:26;6.60;99.90
52459;DHT22;38372;52.902;6.024;2023-03-05T15:42:56;6.60;99.90
52459;DHT22;38372;52.902;6.024;2023-03-05T15:45:22;6.60;99.90
52459;DHT22;38372;52.902;6.024;2023-03-05T15:47:49;6.50;99.90
52459;DHT22;38372;52.902;6.024;2023-03-05T15:50:16;6.50;99.90
52459;DHT22;38372;52.902;6.024;2023-03-05T15:52:42;6.50;99.90
52459;DHT22;38372;52.902;6.024;2023-03-05T15:55:08;6.50;99.90
52459;DHT22;38372;52.902;6.024;2023-03-05T15:57:36;6.60;99.90
52459;DHT22;38372;52.902;6.024;2023-03-05T16:00:07;6.70;99.90
52459;DHT22;38372;52.902;6.024;2023-03-05T16:02:33;6.80;99.90
52459;DHT22;38372;52.902;6.024;2023-03-05T16:04:59;6.90;99.90
52459;DHT22;38372;52.902;6.024;2023-03-05T16:07:26;7.00;99.90
52459;DHT22;38372;52.902;6.024;2023-03-05T16:09:55;7.20;99.90
52459;DHT22;38372;52.902;6.024;2023-03-05T16:12:25;7.30;99.90
52459;DHT22;38372;52.902;6.024;2023-03-05T16:14:52;7.30;99.90
52459;DHT22;38372;52.902;6.024;2023-03-05T16:17:20;7.20;99.90
52459;DHT22;38372;52.902;6.024;2023-03-05T16:19:49;7.10;99.90
52459;DHT22;38372;52.902;6.024;2023-03-05T16:22:16;7.00;99.90
52459;DHT22;38372;52.902;6.024;2023-03-05T16:24:42;7.00;99.90
52459;DHT22;38372;52.902;6.024;2023-03-05T16:27:07;7.00;99.90
52459;DHT22;38372;52.902;6.024;2023-03-05T16:29:34;6.90;99.90
52459;DHT22;38372;52.902;6.024;2023-03-05T16:32:01;6.80;99.90
52459;DHT22;38372;52.902;6.024;2023-03-05T16:34:28;6.70;99.90
52459;DHT22;38372;52.902;6.024;2023-03-05T16:36:54;6.60;99.90
52459;DHT22;38372;52.902;6.024;2023-03-05T16:39:20;6.50;99.90
52459;DHT22;38372;52.902;6.024;2023-03-05T16:41:48;6.40;99.90
52459;DHT22;38372;52.902;6.024;2023-03-05T16:44:18;6.30;99.90
52459;DHT22;38372;52.902;6.024;2023-03-05T16:46:49;6.20;99.90
52459;DHT22;38372;52.902;6.024;2023-03-05T16:49:21;6.00;99.90
52459;DHT22;38372;52.902;6.024;2023-03-05T16:51:47;6.00;99.90
52459;DHT22;38372;52.902;6.024;2023-03-05T16:54:13;5.90;99.90
52459;DHT22;38372;52.902;6.024;2023-03-05T16:56:39;5.90;99.90
52459;DHT22;38372;52.902;6.024;2023-03-05T16:59:04;5.80;99.90
52459;DHT22;38372;52.902;6.024;2023-03-05T17:01:30;5.70;99.90
52459;DHT22;38372;52.902;6.024;2023-03-05T17:03:58;5.70;99.90
52459;DHT22;38372;52.902;6.024;2023-03-05T17:06:29;5.60;99.90
52459;DHT22;38372;52.902;6.024;2023-03-05T17:08:56;5.50;99.90
52459;DHT22;38372;52.902;6.024;2023-03-05T17:11:22;5.40;99.90
52459;DHT22;38372;52.902;6.024;2023-03-05T17:13:50;5.30;99.90
52459;DHT22;38372;52.902;6.024;2023-03-05T17:16:17;5.30;99.90
52459;DHT22;38372;52.902;6.024;2023-03-05T17:18:46;5.20;99.90
52459;DHT22;38372;52.902;6.024;2023-03-05T17:21:14;5.00;99.90
52459;DHT22;38372;52.902;6.024;2023-03-05T17:23:40;4.90;99.90
52459;DHT22;38372;52.902;6.024;2023-03-05T17:26:08;4.80;99.90
52459;DHT22;38372;52.902;6.024;2023-03-05T17:28:35;4.80;99.90
52459;DHT22;38372;52.902;6.024;2023-03-05T17:31:04;4.70;99.90
52459;DHT22;38372;52.902;6.024;2023-03-05T17:33:35;4.60;99.90
52459;DHT22;38372;52.902;6.024;2023-03-05T17:36:02;4.50;99.90
52459;DHT22;38372;52.902;6.024;2023-03-05T17:38:28;4.40;99.90
52459;DHT22;38372;52.902;6.024;2023-03-05T17:40:56;4.30;99.90